createdAt,value
2022-12-08T00:01:16.843Z,100659.91
2022-12-08T00:03:44.343Z,100669.72
2022-12-08T00:06:50.313Z,100663.63
2022-12-08T00:09:37.970Z,100667.13
2022-12-08T00:12:09.639Z,100657.47
2022-12-08T00:14:43.459Z,100665.34
2022-12-08T00:17:12.055Z,100663.41
2022-12-08T00:19:39.998Z,100661.47
2022-12-08T00:22:09.259Z,100665.03
2022-12-08T00:24:40.915Z,100665.09
2022-12-08T00:27:12.570Z,100661.56
2022-12-08T00:29:39.632Z,100655.53
2022-12-08T00:32:07.097Z,100660.03
2022-12-08T00:34:34.853Z,100655.72
2022-12-08T00:37:01.748Z,100657.41
2022-12-08T00:39:28.593Z,100654.75
2022-12-08T00:42:13.605Z,100654.72
2022-12-08T00:44:42.900Z,100659.09
2022-12-08T00:47:10.718Z,100660.97
2022-12-08T00:49:37.679Z,100665.34
2022-12-08T00:52:04.696Z,100677.56
2022-12-08T00:54:31.748Z,100679.28
2022-12-08T00:56:58.620Z,100678.34
2022-12-08T00:59:25.612Z,100677.47
2022-12-08T01:01:52.576Z,100684.16
2022-12-08T01:04:20.039Z,100667.69
2022-12-08T01:06:47.894Z,100666.91
2022-12-08T01:09:16.054Z,100659.94
2022-12-08T01:11:44.663Z,100662.56
2022-12-08T01:14:12.506Z,100659.03
2022-12-08T01:16:41.599Z,100659.94
2022-12-08T01:19:11.077Z,100660.91
2022-12-08T01:21:38.058Z,100657.47
2022-12-08T01:24:05.377Z,100661.81
2022-12-08T01:26:32.244Z,100668.00
2022-12-08T01:28:59.200Z,100661.88
2022-12-08T01:31:26.273Z,100666.25
2022-12-08T01:33:53.463Z,100658.34
2022-12-08T01:36:26.067Z,100661.84
2022-12-08T01:38:54.145Z,100651.28
2022-12-08T01:41:23.998Z,100651.25
2022-12-08T01:43:53.881Z,100644.22
2022-12-08T01:46:20.785Z,100647.75
2022-12-08T01:48:48.550Z,100642.44
2022-12-08T01:51:15.775Z,100648.63
2022-12-08T01:53:42.747Z,100644.22
2022-12-08T01:56:18.680Z,100643.41
2022-12-08T01:58:49.681Z,100651.28
2022-12-08T02:01:17.469Z,100657.44
2022-12-08T02:04:00.556Z,100657.50
2022-12-08T02:06:35.171Z,100643.47
2022-12-08T02:09:05.488Z,100646.06
2022-12-08T02:11:32.444Z,100644.38
2022-12-08T02:14:01.728Z,100647.00
2022-12-08T02:16:42.350Z,100650.47
2022-12-08T02:19:34.959Z,100645.22
2022-12-08T02:22:07.488Z,100653.97
2022-12-08T02:24:46.121Z,100651.31
2022-12-08T02:27:18.740Z,100652.13
2022-12-08T02:30:18.770Z,100660.47
2022-12-08T02:33:05.057Z,100654.03
2022-12-08T02:35:36.895Z,100655.66
2022-12-08T02:38:30.139Z,100664.47
2022-12-08T02:41:08.762Z,100670.59
2022-12-08T02:43:45.800Z,100660.97
2022-12-08T02:46:27.640Z,100668.63
2022-12-08T02:48:56.956Z,100671.50
2022-12-08T02:51:24.002Z,100667.16
2022-12-08T02:53:51.293Z,100671.97
2022-12-08T02:56:39.446Z,100677.09
2022-12-08T02:59:47.778Z,100663.41
2022-12-08T03:02:32.265Z,100655.84
2022-12-08T03:05:17.237Z,100662.84
2022-12-08T03:08:03.402Z,100659.41
2022-12-08T03:10:53.598Z,100663.66
2022-12-08T03:13:24.837Z,100667.41
2022-12-08T03:15:55.203Z,100673.78
2022-12-08T03:18:27.840Z,100672.16
2022-12-08T03:20:55.389Z,100682.66
2022-12-08T03:23:24.499Z,100679.66
2022-12-08T03:26:05.062Z,100679.50
2022-12-08T03:28:32.005Z,100686.81
2022-12-08T03:31:06.379Z,100689.47
2022-12-08T03:33:38.253Z,100683.22
2022-12-08T03:36:08.418Z,100679.38
2022-12-08T03:38:41.377Z,100684.00
2022-12-08T03:41:20.169Z,100685.06
2022-12-08T03:43:59.498Z,100687.03
2022-12-08T03:48:54.744Z,100690.53
2022-12-08T03:51:21.974Z,100692.28
2022-12-08T03:53:49.584Z,100700.78
2022-12-08T03:56:34.086Z,100697.22
2022-12-08T03:59:01.667Z,100695.97
2022-12-08T04:01:28.869Z,100701.75
2022-12-08T04:03:55.737Z,100702.50
2022-12-08T04:06:22.774Z,100708.47
2022-12-08T04:08:50.466Z,100709.31
2022-12-08T04:11:18.234Z,100713.06
2022-12-08T04:13:45.406Z,100708.06
2022-12-08T04:16:17.438Z,100713.34
2022-12-08T04:18:44.747Z,100707.16
2022-12-08T04:21:11.925Z,100711.59
2022-12-08T04:23:38.874Z,100709.09
2022-12-08T04:26:06.099Z,100713.41
2022-12-08T04:28:32.996Z,100710.66
2022-12-08T04:31:00.209Z,100711.41
2022-12-08T04:33:27.248Z,100714.09
2022-12-08T04:35:54.293Z,100717.13
2022-12-08T04:38:21.400Z,100710.31
2022-12-08T04:40:48.388Z,100711.22
2022-12-08T04:43:15.541Z,100712.88
2022-12-08T04:45:43.157Z,100710.16
2022-12-08T04:48:12.693Z,100721.03
2022-12-08T04:50:41.967Z,100734.97
2022-12-08T04:53:10.249Z,100731.31
2022-12-08T04:55:45.037Z,100740.75
2022-12-08T04:58:14.218Z,100744.84
2022-12-08T05:00:41.435Z,100744.34
2022-12-08T05:03:09.329Z,100751.03
2022-12-08T05:05:36.246Z,100747.41
2022-12-08T05:08:03.436Z,100757.34
2022-12-08T05:10:30.406Z,100744.81
2022-12-08T05:12:58.975Z,100751.91
2022-12-08T05:15:26.194Z,100748.34
2022-12-08T05:17:53.098Z,100749.28
2022-12-08T05:20:20.329Z,100754.53
2022-12-08T05:22:47.302Z,100752.31
2022-12-08T05:25:15.052Z,100750.97
2022-12-08T05:27:43.225Z,100757.44
2022-12-08T05:30:10.332Z,100759.63
2022-12-08T05:32:37.470Z,100757.66
2022-12-08T05:35:04.718Z,100772.19
2022-12-08T05:37:31.669Z,100771.97
2022-12-08T05:39:58.736Z,100781.63
2022-12-08T05:42:25.637Z,100784.84
2022-12-08T05:44:53.066Z,100784.09
2022-12-08T05:47:20.188Z,100784.03
2022-12-08T05:49:47.103Z,100784.38
2022-12-08T05:52:13.966Z,100788.03
2022-12-08T05:54:40.883Z,100790.13
2022-12-08T05:57:07.778Z,100797.91
2022-12-08T05:59:34.845Z,100799.22
2022-12-08T06:02:01.851Z,100807.09
2022-12-08T06:04:28.859Z,100810.88
2022-12-08T06:06:55.902Z,100814.34
2022-12-08T06:09:22.812Z,100821.16
2022-12-08T06:11:49.796Z,100821.25
2022-12-08T06:14:16.610Z,100824.03
2022-12-08T06:16:43.604Z,100831.13
2022-12-08T06:19:10.554Z,100833.91
2022-12-08T06:21:37.457Z,100831.75
2022-12-08T06:24:04.534Z,100833.94
2022-12-08T06:26:31.381Z,100833.63
2022-12-08T06:29:00.751Z,100828.69
2022-12-08T06:31:28.446Z,100816.97
2022-12-08T06:33:55.584Z,100812.69
2022-12-08T06:36:26.337Z,100822.13
2022-12-08T06:38:53.273Z,100820.44
2022-12-08T06:41:20.375Z,100824.50
2022-12-08T06:43:47.436Z,100824.53
2022-12-08T06:46:16.959Z,100831.03
2022-12-08T06:48:44.422Z,100839.28
2022-12-08T06:51:15.004Z,100833.69
2022-12-08T06:53:42.910Z,100820.91
2022-12-08T06:56:11.196Z,100831.63
2022-12-08T06:58:38.471Z,100830.09
2022-12-08T07:01:11.709Z,100832.66
2022-12-08T07:03:39.474Z,100826.41
2022-12-08T07:06:07.147Z,100830.59
2022-12-08T07:08:34.945Z,100844.19
2022-12-08T07:11:08.848Z,100839.06
2022-12-08T07:13:35.774Z,100836.59
2022-12-08T07:16:06.143Z,100829.19
2022-12-08T07:18:33.031Z,100829.84
2022-12-08T07:21:11.150Z,100841.50
2022-12-08T07:23:38.342Z,100840.81
2022-12-08T07:26:08.460Z,100836.00
2022-12-08T07:28:37.483Z,100833.22
2022-12-08T07:31:05.240Z,100828.06
2022-12-08T07:33:33.017Z,100843.00
2022-12-08T07:36:02.255Z,100851.66
2022-12-08T07:38:29.641Z,100849.34
2022-12-08T07:40:56.912Z,100854.59
2022-12-08T07:43:24.044Z,100850.22
2022-12-08T07:45:51.137Z,100848.50
2022-12-08T07:48:18.682Z,100843.19
2022-12-08T07:50:46.311Z,100836.06
2022-12-08T07:53:13.679Z,100835.28
2022-12-08T07:55:42.729Z,100838.78
2022-12-08T07:58:10.281Z,100831.53
2022-12-08T08:00:37.501Z,100840.56
2022-12-08T08:03:04.656Z,100851.09
2022-12-08T08:05:31.763Z,100864.41
2022-12-08T08:07:58.721Z,100871.41
2022-12-08T08:10:25.699Z,100864.66
2022-12-08T08:12:52.586Z,100878.88
2022-12-08T08:15:21.272Z,100883.38
2022-12-08T08:17:52.328Z,100871.28
2022-12-08T08:20:20.171Z,100879.03
2022-12-08T08:22:48.326Z,100883.28
2022-12-08T08:25:16.337Z,100885.50
2022-12-08T08:27:43.589Z,100885.38
2022-12-08T08:30:18.178Z,100876.75
2022-12-08T08:32:47.295Z,100879.41
2022-12-08T08:35:14.382Z,100882.09
2022-12-08T08:37:45.755Z,100877.00
2022-12-08T08:40:15.922Z,100882.78
2022-12-08T08:42:42.788Z,100883.75
2022-12-08T08:45:10.138Z,100876.97
2022-12-08T08:47:37.021Z,100885.09
2022-12-08T08:50:04.952Z,100879.13
2022-12-08T08:52:32.056Z,100871.25
2022-12-08T08:54:58.962Z,100877.34
2022-12-08T08:57:26.346Z,100874.69
2022-12-08T08:59:54.102Z,100873.84
2022-12-08T09:02:21.439Z,100865.13
2022-12-08T09:04:48.690Z,100860.75
2022-12-08T09:07:16.294Z,100853.63
2022-12-08T09:09:43.338Z,100851.00
2022-12-08T09:12:10.442Z,100842.28
2022-12-08T09:14:37.353Z,100842.28
2022-12-08T09:17:04.509Z,100851.03
2022-12-08T09:19:31.766Z,100855.50
2022-12-08T09:21:58.668Z,100849.31
2022-12-08T09:24:25.608Z,100834.09
2022-12-08T09:26:52.501Z,100825.22
2022-12-08T09:29:19.408Z,100829.25
2022-12-08T09:31:46.527Z,100818.44
2022-12-08T09:34:13.666Z,100812.31
2022-12-08T09:36:40.863Z,100818.47
2022-12-08T09:39:08.121Z,100814.66
2022-12-08T09:41:44.809Z,100824.13
2022-12-08T09:45:05.555Z,100818.16
2022-12-08T09:47:39.220Z,100811.38
2022-12-08T09:50:30.318Z,100808.59
2022-12-08T09:53:09.521Z,100808.09
2022-12-08T09:56:00.362Z,100802.53
2022-12-08T09:58:55.680Z,100812.19
2022-12-08T10:01:27.255Z,100814.38
2022-12-08T10:03:56.935Z,100811.22
2022-12-08T10:06:48.013Z,100804.13
2022-12-08T10:09:31.062Z,100809.06
2022-12-08T10:12:00.774Z,100813.59
2022-12-08T10:14:33.650Z,100813.66
2022-12-08T10:17:24.071Z,100815.47
2022-12-08T10:19:57.944Z,100802.88
2022-12-08T10:22:27.399Z,100804.31
2022-12-08T10:25:16.928Z,100790.25
2022-12-08T10:27:44.394Z,100787.84
2022-12-08T10:30:17.493Z,100783.38
2022-12-08T10:32:48.238Z,100781.25
2022-12-08T10:35:17.045Z,100772.22
2022-12-08T10:38:06.454Z,100771.56
2022-12-08T10:40:43.869Z,100769.84
2022-12-08T10:43:23.145Z,100768.00
2022-12-08T10:45:50.267Z,100767.41
2022-12-08T10:48:27.905Z,100772.97
2022-12-08T10:51:00.094Z,100775.94
2022-12-08T10:53:32.759Z,100777.22
2022-12-08T10:56:02.639Z,100774.34
2022-12-08T10:58:41.528Z,100768.53
2022-12-08T11:01:18.820Z,100758.28
2022-12-08T11:03:50.228Z,100746.97
2022-12-08T11:06:29.553Z,100743.81
2022-12-08T11:08:58.172Z,100739.25
2022-12-08T11:11:47.793Z,100731.91
2022-12-08T11:14:28.322Z,100729.16
2022-12-08T11:17:05.506Z,100728.91
2022-12-08T11:19:38.680Z,100730.72
2022-12-08T11:22:38.487Z,100732.78
2022-12-08T11:25:08.527Z,100725.09
2022-12-08T11:27:37.941Z,100726.88
2022-12-08T11:30:20.410Z,100724.41
2022-12-08T11:32:59.704Z,100723.63
2022-12-08T11:35:59.326Z,100723.28
2022-12-08T11:38:28.278Z,100725.16
2022-12-08T11:41:15.499Z,100722.50
2022-12-08T11:43:59.330Z,100722.16
2022-12-08T11:46:33.404Z,100726.41
2022-12-08T11:49:06.839Z,100709.16
2022-12-08T11:51:36.675Z,100711.09
2022-12-08T11:54:11.251Z,100713.72
2022-12-08T11:56:59.485Z,100712.97
2022-12-08T11:59:46.171Z,100707.31
2022-12-08T12:02:21.327Z,100716.53
2022-12-08T12:04:56.473Z,100707.66
2022-12-08T12:07:44.882Z,100712.59
2022-12-08T12:10:20.941Z,100712.94
2022-12-08T12:13:08.029Z,100718.47
2022-12-08T12:15:59.522Z,100722.53
2022-12-08T12:18:40.293Z,100725.03
2022-12-08T12:21:29.451Z,100715.00
2022-12-08T12:24:05.504Z,100705.34
2022-12-08T12:26:37.646Z,100700.94
2022-12-08T12:29:07.014Z,100698.88
2022-12-08T12:31:41.679Z,100703.09
2022-12-08T12:34:34.947Z,100693.56
2022-12-08T12:37:15.046Z,100694.94
2022-12-08T12:39:53.797Z,100698.03
2022-12-08T12:42:38.766Z,100699.44
2022-12-08T12:45:17.602Z,100693.25
2022-12-08T12:47:55.617Z,100690.53
2022-12-08T12:50:37.234Z,100694.41
2022-12-08T12:53:10.702Z,100697.81
2022-12-08T12:55:46.765Z,100701.97
2022-12-08T12:58:29.248Z,100698.09
2022-12-08T13:01:11.861Z,100700.22
2022-12-08T13:03:45.849Z,100697.00
2022-12-08T13:06:15.321Z,100702.56
2022-12-08T13:08:53.099Z,100702.78
2022-12-08T13:11:22.089Z,100703.91
2022-12-08T13:14:03.879Z,100706.66
2022-12-08T13:16:55.148Z,100707.63
2022-12-08T13:19:22.673Z,100702.38
2022-12-08T13:21:49.685Z,100708.47
2022-12-08T13:24:25.695Z,100704.91
2022-12-08T13:27:04.604Z,100705.06
2022-12-08T13:29:33.500Z,100706.53
2022-12-08T13:32:04.369Z,100710.13
2022-12-08T13:34:45.544Z,100711.13
2022-12-08T13:37:12.446Z,100716.31
2022-12-08T13:39:39.287Z,100715.50
2022-12-08T13:42:12.451Z,100713.56
2022-12-08T13:48:14.036Z,100716.41
2022-12-08T13:52:59.839Z,100712.88
2022-12-08T13:59:30.509Z,100738.38
2022-12-08T14:02:15.991Z,100735.00
2022-12-08T14:05:17.451Z,100723.50
2022-12-08T14:07:34.995Z,100723.19
2022-12-08T14:10:03.761Z,100727.03
2022-12-08T14:12:31.804Z,100727.75
2022-12-08T14:15:04.140Z,100727.81
2022-12-08T14:17:51.466Z,100720.38
2022-12-08T14:20:57.953Z,100715.91
2022-12-08T14:23:22.622Z,100719.72
2022-12-08T14:25:49.614Z,100719.38
2022-12-08T14:28:16.932Z,100719.03
2022-12-08T14:30:44.206Z,100720.13
2022-12-08T14:33:17.171Z,100718.38
2022-12-08T14:35:50.746Z,100718.47
2022-12-08T14:38:19.813Z,100726.41
2022-12-08T14:41:01.036Z,100732.56
2022-12-08T14:43:29.626Z,100738.69
2022-12-08T14:46:01.687Z,100736.97
2022-12-08T14:48:31.551Z,100736.09
2022-12-08T14:51:02.826Z,100740.47
2022-12-08T14:53:41.887Z,100731.66
2022-12-08T14:56:16.736Z,100732.44
2022-12-08T14:58:44.199Z,100736.78
2022-12-08T15:01:14.370Z,100724.56
2022-12-08T15:03:43.619Z,100729.72
2022-12-08T15:06:14.480Z,100729.75
2022-12-08T15:08:59.419Z,100735.00
2022-12-08T15:11:35.179Z,100727.84
2022-12-08T15:14:02.980Z,100727.69
2022-12-08T15:16:38.403Z,100723.19
2022-12-08T15:19:16.546Z,100729.38
2022-12-08T15:21:45.617Z,100723.56
2022-12-08T15:24:14.245Z,100734.63
2022-12-08T15:26:49.999Z,100733.81
2022-12-08T15:29:26.974Z,100737.41
2022-12-08T15:32:00.595Z,100730.41
2022-12-08T15:34:27.625Z,100725.97
2022-12-08T15:36:55.090Z,100723.06
2022-12-08T15:39:27.630Z,100735.34
2022-12-08T15:41:54.522Z,100724.22
2022-12-08T15:44:21.516Z,100729.47
2022-12-08T15:46:50.129Z,100733.78
2022-12-08T15:49:19.748Z,100729.63
2022-12-08T15:51:47.184Z,100724.41
2022-12-08T15:54:14.626Z,100722.56
2022-12-08T15:57:17.888Z,100716.44
2022-12-08T15:59:37.402Z,100725.91
2022-12-08T16:02:04.351Z,100726.41
2022-12-08T16:07:29.467Z,100722.72
2022-12-08T16:09:56.786Z,100731.44
2022-12-08T16:15:51.754Z,100727.97
2022-12-08T16:18:26.950Z,100733.91
2022-12-08T16:23:44.019Z,100745.19
2022-12-08T16:26:39.412Z,100742.84
2022-12-08T16:29:05.268Z,100732.34
2022-12-08T16:31:32.742Z,100728.88
2022-12-08T16:33:59.876Z,100734.97
2022-12-08T16:36:26.722Z,100731.25
2022-12-08T16:38:53.635Z,100743.63
2022-12-08T16:41:39.217Z,100736.63
2022-12-08T16:44:06.361Z,100733.91
2022-12-08T16:46:33.686Z,100741.00
2022-12-08T16:49:00.772Z,100743.63
2022-12-08T16:51:27.815Z,100740.00
2022-12-08T16:53:57.075Z,100743.41
2022-12-08T16:56:31.942Z,100742.31
2022-12-08T16:59:00.605Z,100733.25
2022-12-08T17:01:27.770Z,100733.41
2022-12-08T17:04:29.693Z,100737.94
2022-12-08T17:06:41.763Z,100727.84
2022-12-08T17:09:08.843Z,100735.44
2022-12-08T17:11:42.276Z,100729.66
2022-12-08T17:14:11.128Z,100732.31
2022-12-08T17:16:38.475Z,100730.47
2022-12-08T17:19:05.606Z,100726.81
2022-12-08T17:21:32.627Z,100730.19
2022-12-08T17:23:59.528Z,100726.84
2022-12-08T17:26:26.425Z,100723.88
2022-12-08T17:29:01.515Z,100716.94
2022-12-08T17:31:31.622Z,100715.75
2022-12-08T17:34:03.863Z,100725.50
2022-12-08T17:36:30.869Z,100721.00
2022-12-08T17:38:59.970Z,100722.63
2022-12-08T17:41:27.581Z,100719.28
2022-12-08T17:43:54.472Z,100722.16
2022-12-08T17:46:22.819Z,100707.34
2022-12-08T17:48:50.147Z,100709.09
2022-12-08T17:51:17.125Z,100709.66
2022-12-08T17:53:44.082Z,100707.88
2022-12-08T17:56:16.922Z,100707.09
2022-12-08T17:58:44.913Z,100707.69
2022-12-08T18:01:12.763Z,100694.56
2022-12-08T18:03:40.152Z,100701.81
2022-12-08T18:06:12.483Z,100694.13
2022-12-08T18:08:40.444Z,100702.88
2022-12-08T18:11:12.387Z,100699.22
2022-12-08T18:13:39.363Z,100700.22
2022-12-08T18:16:06.531Z,100702.84
2022-12-08T18:18:33.454Z,100704.75
2022-12-08T18:21:00.496Z,100696.88
2022-12-08T18:23:27.541Z,100708.28
2022-12-08T18:25:54.570Z,100699.31
2022-12-08T18:28:21.487Z,100699.97
2022-12-08T18:30:48.560Z,100689.88
2022-12-08T18:33:15.674Z,100692.84
2022-12-08T18:35:42.564Z,100697.06
2022-12-08T18:38:09.606Z,100702.78
2022-12-08T18:40:36.493Z,100694.13
2022-12-08T18:43:03.836Z,100689.19
2022-12-08T18:45:31.228Z,100694.56
2022-12-08T18:47:58.155Z,100692.78
2022-12-08T18:50:25.114Z,100688.41
2022-12-08T18:52:52.176Z,100691.03
2022-12-08T18:55:19.045Z,100682.22
2022-12-08T18:57:46.382Z,100698.25
2022-12-08T19:00:15.995Z,100697.31
2022-12-08T19:02:43.285Z,100689.34
2022-12-08T19:05:12.614Z,100692.59
2022-12-08T19:07:39.786Z,100692.47
2022-12-08T19:10:07.577Z,100694.09
2022-12-08T19:12:34.730Z,100695.81
2022-12-08T19:15:01.764Z,100695.78
2022-12-08T19:17:29.873Z,100688.84
2022-12-08T19:19:56.841Z,100686.16
2022-12-08T19:22:23.806Z,100679.22
2022-12-08T19:24:50.756Z,100686.47
2022-12-08T19:27:18.738Z,100686.00
2022-12-08T19:29:45.626Z,100675.31
2022-12-08T19:32:12.495Z,100689.50
2022-12-08T19:34:39.507Z,100677.28
2022-12-08T19:37:07.012Z,100681.13
2022-12-08T19:39:52.844Z,100690.63
2022-12-08T19:42:39.313Z,100683.00
2022-12-08T19:45:19.573Z,100683.56
2022-12-08T19:47:46.970Z,100678.06
2022-12-08T19:50:34.357Z,100675.28
2022-12-08T19:53:02.146Z,100678.84
2022-12-08T19:55:29.475Z,100683.28
2022-12-08T19:57:59.852Z,100679.63
2022-12-08T20:00:26.791Z,100674.78
2022-12-08T20:02:53.799Z,100663.34
2022-12-08T20:05:20.809Z,100671.25
2022-12-08T20:07:47.815Z,100668.53
2022-12-08T20:10:22.290Z,100665.66
2022-12-08T20:12:49.350Z,100662.03
2022-12-08T20:15:16.449Z,100664.84
2022-12-08T20:17:43.873Z,100661.94
2022-12-08T20:20:13.269Z,100663.50
2022-12-08T20:22:40.663Z,100664.81
2022-12-08T20:25:12.834Z,100653.09
2022-12-08T20:27:40.515Z,100660.03
2022-12-08T20:30:13.310Z,100659.97
2022-12-08T20:32:42.077Z,100668.22
2022-12-08T20:35:09.446Z,100659.41
2022-12-08T20:37:36.569Z,100653.16
2022-12-08T20:40:06.159Z,100657.28
2022-12-08T20:42:33.127Z,100663.66
2022-12-08T20:45:00.032Z,100659.97
2022-12-08T20:47:27.013Z,100661.59
2022-12-08T20:49:54.214Z,100652.28
2022-12-08T20:52:21.123Z,100658.69
2022-12-08T20:54:48.116Z,100658.97
2022-12-08T20:57:15.224Z,100661.13
2022-12-08T20:59:42.382Z,100655.69
2022-12-08T21:02:11.195Z,100656.09
2022-12-08T21:04:38.468Z,100653.69
2022-12-08T21:07:05.627Z,100651.22
2022-12-08T21:09:32.948Z,100653.06
2022-12-08T21:11:59.907Z,100653.19
2022-12-08T21:14:27.090Z,100655.59
2022-12-08T21:16:54.692Z,100654.56
2022-12-08T21:19:22.440Z,100650.97
2022-12-08T21:21:50.860Z,100651.97
2022-12-08T21:24:19.044Z,100654.22
2022-12-08T21:26:46.225Z,100656.13
2022-12-08T21:29:13.454Z,100657.00
2022-12-08T21:31:41.020Z,100659.50
2022-12-08T21:34:08.285Z,100648.03
2022-12-08T21:36:35.406Z,100648.69
2022-12-08T21:39:03.013Z,100645.00
2022-12-08T21:41:49.416Z,100652.13
2022-12-08T21:44:18.747Z,100646.41
2022-12-08T21:46:45.976Z,100645.50
2022-12-08T21:49:13.242Z,100649.16
2022-12-08T21:51:42.385Z,100651.91
2022-12-08T21:54:16.692Z,100655.56
2022-12-08T21:56:46.911Z,100658.25
2022-12-08T21:59:14.124Z,100653.00
2022-12-08T22:01:43.487Z,100656.50
2022-12-08T22:04:12.592Z,100652.13
2022-12-08T22:06:39.956Z,100648.53
2022-12-08T22:09:07.325Z,100650.25
2022-12-08T22:11:34.491Z,100645.88
2022-12-08T22:14:01.629Z,100652.00
2022-12-08T22:16:28.679Z,100654.53
2022-12-08T22:18:55.820Z,100643.59
2022-12-08T22:21:22.792Z,100642.19
2022-12-08T22:23:50.151Z,100644.34
2022-12-08T22:26:17.069Z,100649.22
2022-12-08T22:28:44.824Z,100649.38
2022-12-08T22:31:14.995Z,100644.53
2022-12-08T22:33:43.547Z,100636.84
2022-12-08T22:36:19.757Z,100636.66
2022-12-08T22:38:46.924Z,100643.41
2022-12-08T22:41:14.348Z,100632.59
2022-12-08T22:43:41.684Z,100643.38
2022-12-08T22:46:18.186Z,100634.41
2022-12-08T22:48:45.650Z,100631.59
2022-12-08T22:51:13.090Z,100629.44
2022-12-08T22:53:40.378Z,100633.38
2022-12-08T22:56:09.852Z,100626.78
2022-12-08T22:58:37.963Z,100627.44
2022-12-08T23:01:05.273Z,100626.09
2022-12-08T23:03:33.846Z,100627.13
2022-12-08T23:06:01.609Z,100627.38
2022-12-08T23:08:28.718Z,100620.66
2022-12-08T23:10:55.885Z,100625.97
2022-12-08T23:13:23.034Z,100623.75
2022-12-08T23:15:50.131Z,100623.72
2022-12-08T23:18:21.205Z,100621.47
2022-12-08T23:20:48.302Z,100618.91
2022-12-08T23:23:15.606Z,100618.16
2022-12-08T23:25:43.449Z,100611.69
2022-12-08T23:28:11.368Z,100609.84
2022-12-08T23:30:41.496Z,100611.47
2022-12-08T23:33:08.617Z,100607.97
2022-12-08T23:35:35.552Z,100604.22
2022-12-08T23:38:02.524Z,100600.91
2022-12-08T23:40:29.471Z,100601.25
2022-12-08T23:42:56.580Z,100602.25
2022-12-08T23:45:23.492Z,100597.38
2022-12-08T23:47:50.476Z,100592.66
2022-12-08T23:50:17.653Z,100595.59
2022-12-08T23:52:44.823Z,100589.59
2022-12-08T23:55:11.795Z,100592.16
2022-12-08T23:57:38.836Z,100593.72
